PAUNPABR

Guest
Details From PAUN - Unalakleet
To PABR - Wiley Post Will Rogers Mem
Flight Number -
Tags Generated
Created
Modified
Stats Distance 454 nm / 840 km
Max Altitude 0 ft / 0 m
Waypoints 3
Social Downloads 3
Likes 0
Share VATSIM

Download

Looking for another format? Having issues loading an existing format? Contact us
Advertisement - Login to hide

Notes

Generated

Route

PAUN R0536 PABR

ID Type Via Altitude Latitude Longitude Leg Dist Tot Dist Heading (true) Name
O PAUN APT - 0 ft / 0 m 63.88345˚ -160.79903˚ - 0 nm - -
R0536 FIX - 0 ft / 0 m 71.28544˚ -156.79365˚ 453 nm 453 nm 10° / 14° -
O PABR APT - 0 ft / 0 m 71.28544˚ -156.79365˚ 0 nm 453 nm 0° / 180° -

Altitude Profile

Advertisement - Login to hide

Weather


0- 5 10 15 20 25 30 35+ Temperature / ° C

Clouds and Precipitation
Forecast for 2017-12-17 18:00 UTC. Updated 42 minutes ago

Ground ~20,000 ft ~40,000 ft Winds

PAUN

Details ICAO PAUN (UNK)
Name Unalakleet
Region USA (Alaska)
Timezone America/Anchorage (UTC-9.0)
Stats Elevation 68 ft / 21 m (AMSL)
Location 63.886590° -160.796931°
Runways 2
Magnetic Variation 12.174° E

METAR

PAUN 171802Z AUTO 26006KT 2 1/2SM -SN BR OVC008 M02/M03 A2959 RMK AO2 VIS 2V4 CIG 005V010 P0000 FZRANO

Decode

TAF

TAF PAUN 171720Z 1718/1818 27005KT 4SM -SN BR BKN008 OVC025 FM180200 24006KT 6SM -SN BR SCT015 OVC025 FM180800 20010KT P6SM SCT025 BKN040

Decode

Departure Runways

ID Width Length Bearing (true) Bearing (mag) Surface Threshold Offset Overrun Length
15 151 ft / 46 m 5,990 ft / 1,826 m 164.15° 151.98° Asphalt 0 ft / 0 m 499 ft / 152 m
26 79 ft / 24 m 1,993 ft / 608 m 278.43° 266.26° Asphalt 0 ft / 0 m 0 ft / 0 m
33 151 ft / 46 m 5,990 ft / 1,826 m 344.16° 331.99° Asphalt 0 ft / 0 m 0 ft / 0 m
8 79 ft / 24 m 1,993 ft / 608 m 98.42° 86.25° Asphalt 0 ft / 0 m 0 ft / 0 m

PABR

Details ICAO PABR (BRW)
Name WILEY POST WILL ROGERS MEM
Region USA (Alaska)
Timezone America/Anchorage (UTC-9.0)
Stats Elevation 44 ft / 13 m (AMSL)
Location 71.284660° -156.768746°
Runways 1
Magnetic Variation 14.519° E

METAR

PABR 171753Z 05015KT 10SM BLSN CLR M22/M24 A2995

Decode

TAF

TAF PABR 171720Z 1718/1818 06020KT P6SM SCT015 SCT050 FM172100 06015KT P6SM OVC050 FM180600 06013KT P6SM OVC100

Decode

Destination Runways

ID Width Length Bearing (true) Bearing (mag) Surface Threshold Offset Overrun Length
07 151 ft / 46 m 7,107 ft / 2,166 m 91.11° 76.59° Asphalt 0 ft / 0 m 0 ft / 0 m
25 151 ft / 46 m 7,107 ft / 2,166 m 271.17° 256.65° Asphalt 0 ft / 0 m 0 ft / 0 m

Approach Navaids

Runway Type Ident Frequency Range Bearing (true) Bearing (mag) Slope Elevation
07 Localiser IBRW 110.50 MHz 18 nm / 33 km 91.13° 76.61° - 44 ft / 13 m (AMSL)
07 Glidescope IBRW 110.50 MHz 10 nm / 19 km 91.14° 76.62° 3.00° 41 ft / 12 m (AMSL)
07 DME IBRW 109.10 MHz 18 nm / 33 km - - - 44 ft / 13 m (AMSL)

Popular Alternatives